Погода Новое Мутищена 2 недели

Смоленская область, Россия

20 мая-02 июня
  • 20мая
    Сегодня
    +9°
    +24°
    Небольшая облачность
    ВремяПогодаТемператураВлажностьДавлениеВетер, м/сВероятность осадков
    00:00Ясно и безоблачно+12°C67 %743 мм2.5 м/с2 %
    03:00Ясно и безоблачно+10°C77 %743 мм2.3 м/с2 %
    06:00Небольшая облачность+11°C73 %743 мм2.6 м/с2 %
    09:00Ясно и безоблачно+18°C59 %744 мм2.1 м/с2 %
    12:00Небольшая облачность+21°C42 %744 мм2.0 м/с2 %
    15:00Небольшая облачность+23°C37 %743 мм1.3 м/с3 %
    18:00Небольшая облачность+22°C43 %743 мм2.0 м/с8 %
    21:00Ясно и безоблачно+16°C75 %744 мм1.8 м/с2 %
  • 21мая
    Вторник
    +10°
    +22°
    Пасмурно, небольшой дождь
    ВремяПогодаТемператураВлажностьДавлениеВетер, м/сВероятность осадков
    00:00Практически безоблачно+14°C84 %744 мм1.0 м/с2 %
    03:00Ясно и безоблачно+10°C96 %744 мм2.0 м/с2 %
    06:00Ясно и безоблачно+11°C95 %744 мм1.1 м/с2 %
    09:00Ясно и безоблачно+19°C74 %745 мм0.6 м/с2 %
    12:00Практически безоблачно+21°C61 %746 мм1.2 м/с25 %
    15:00Пасмурно, небольшой дождь+22°C51 %745 мм1.8 м/с52 %
    18:00Небольшая облачность, ливень+20°C69 %745 мм1.5 м/с64 %
    21:00Небольшая облачность+18°C80 %745 мм1.2 м/с16 %
  • 22мая
    Среда
    +10°
    +24°
    Пасмурно, дожди с грозами
    ВремяПогодаТемператураВлажностьДавлениеВетер, м/сВероятность осадков
    00:00Ясно и безоблачно+12°C96 %745 мм1.9 м/с3 %
    03:00Ясно и безоблачно+10°C98 %745 мм2.3 м/с2 %
    06:00Облачно с прояснениями+12°C98 %745 мм2.2 м/с4 %
    09:00Ясно и безоблачно+18°C80 %746 мм2.0 м/с7 %
    12:00Практически безоблачно+21°C66 %746 мм1.9 м/с41 %
    15:00Пасмурно, дожди с грозами+23°C57 %746 мм1.1 м/с64 %
    18:00Небольшая облачность, ливень+20°C75 %746 мм2.8 м/с61 %
    21:00Практически безоблачно+17°C85 %746 мм2.6 м/с15 %
  • 23мая
    Четверг
    +7°
    +21°
    Ясно и безоблачно
    ВремяПогодаТемператураВлажностьДавлениеВетер, м/сВероятность осадков
    00:00Ясно и безоблачно+13°C90 %747 мм2.9 м/с6 %
    03:00Ясно и безоблачно+11°C76 %747 мм3.8 м/с7 %
    06:00Ясно и безоблачно+11°C74 %748 мм4.3 м/с5 %
    09:00Ясно и безоблачно+16°C63 %749 мм4.2 м/с6 %
    12:00Ясно и безоблачно+20°C47 %749 мм5.3 м/с24 %
    15:00Ясно и безоблачно+21°C45 %749 мм5.1 м/с29 %
    18:00Ясно и безоблачно+20°C47 %749 мм5.5 м/с25 %
    21:00Ясно и безоблачно+15°C55 %750 мм4.1 м/с7 %
  • 24мая
    Пятница
    +7°
    +21°
    Практически безоблачно
    ВремяПогодаТемператураВлажностьДавлениеВетер, м/сВероятность осадков
    00:00Ясно и безоблачно+11°C66 %750 мм3.1 м/с2 %
    03:00Ясно и безоблачно+8°C68 %751 мм3.4 м/с2 %
    06:00Ясно и безоблачно+9°C68 %751 мм3.5 м/с4 %
    09:00Ясно и безоблачно+15°C57 %752 мм3.8 м/с2 %
    12:00Ясно и безоблачно+18°C43 %752 мм5.0 м/с2 %
    15:00Практически безоблачно+19°C42 %751 мм4.1 м/с6 %
    18:00Небольшая облачность+20°C42 %750 мм3.3 м/с6 %
    21:00Ясно и безоблачно+13°C64 %750 мм3.1 м/с2 %
Мы используем cookies
Соглашаюсь